sensor_id;sensor_type;location;lat;lon;timestamp;pressure;altitude;pressure_sealevel;temperature;humidity
47280;BME280;34064;44.942;0.008;2023-05-21T00:01:52;98474.59;;;17.64;53.69
47280;BME280;34064;44.942;0.008;2023-05-21T00:04:19;98475.78;;;17.61;53.57
47280;BME280;34064;44.942;0.008;2023-05-21T00:06:47;98473.41;;;17.58;53.76
47280;BME280;34064;44.942;0.008;2023-05-21T00:09:13;98468.22;;;17.56;53.62
47280;BME280;34064;44.942;0.008;2023-05-21T00:11:40;98475.13;;;17.51;53.70
47280;BME280;34064;44.942;0.008;2023-05-21T00:14:06;98468.72;;;17.43;53.96
47280;BME280;34064;44.942;0.008;2023-05-21T00:16:33;98468.09;;;17.41;53.72
47280;BME280;34064;44.942;0.008;2023-05-21T00:18:59;98461.34;;;17.37;53.44
47280;BME280;34064;44.942;0.008;2023-05-21T00:21:27;98460.88;;;17.34;53.88
47280;BME280;34064;44.942;0.008;2023-05-21T00:23:54;98462.03;;;17.31;53.93
47280;BME280;34064;44.942;0.008;2023-05-21T00:26:22;98460.38;;;17.30;53.85
47280;BME280;34064;44.942;0.008;2023-05-21T00:28:51;98460.69;;;17.27;54.02
47280;BME280;34064;44.942;0.008;2023-05-21T00:31:18;98454.00;;;17.23;54.20
47280;BME280;34064;44.942;0.008;2023-05-21T00:33:44;98459.38;;;17.23;53.94
47280;BME280;34064;44.942;0.008;2023-05-21T00:36:11;98449.97;;;17.19;54.09
47280;BME280;34064;44.942;0.008;2023-05-21T00:38:40;98451.97;;;17.17;54.22
47280;BME280;34064;44.942;0.008;2023-05-21T00:41:10;98447.63;;;17.15;54.45
47280;BME280;34064;44.942;0.008;2023-05-21T00:43:37;98449.28;;;17.17;54.36
47280;BME280;34064;44.942;0.008;2023-05-21T00:46:12;98447.63;;;17.15;54.13
47280;BME280;34064;44.942;0.008;2023-05-21T00:48:45;98439.75;;;17.14;54.45
47280;BME280;34064;44.942;0.008;2023-05-21T00:51:13;98448.63;;;17.14;54.27
47280;BME280;34064;44.942;0.008;2023-05-21T00:53:41;98442.41;;;17.14;54.37
47280;BME280;34064;44.942;0.008;2023-05-21T00:56:08;98440.91;;;17.11;54.65
47280;BME280;34064;44.942;0.008;2023-05-21T00:58:35;98437.38;;;17.11;54.53
47280;BME280;34064;44.942;0.008;2023-05-21T01:01:02;98438.25;;;17.11;54.49
47280;BME280;34064;44.942;0.008;2023-05-21T01:03:33;98440.06;;;17.11;54.78
47280;BME280;34064;44.942;0.008;2023-05-21T01:06:08;98434.69;;;17.11;54.89
47280;BME280;34064;44.942;0.008;2023-05-21T01:08:34;98436.22;;;17.05;55.41
47280;BME280;34064;44.942;0.008;2023-05-21T01:11:04;98437.06;;;17.06;55.34
47280;BME280;34064;44.942;0.008;2023-05-21T01:13:34;98437.75;;;17.08;54.99
47280;BME280;34064;44.942;0.008;2023-05-21T01:16:03;98439.56;;;17.07;55.44
47280;BME280;34064;44.942;0.008;2023-05-21T01:18:33;98430.03;;;17.05;55.23
47280;BME280;34064;44.942;0.008;2023-05-21T01:21:01;98432.38;;;17.08;55.00
47280;BME280;34064;44.942;0.008;2023-05-21T01:23:28;98434.56;;;17.04;55.80
47280;BME280;34064;44.942;0.008;2023-05-21T01:25:56;98432.88;;;17.03;55.38
47280;BME280;34064;44.942;0.008;2023-05-21T01:28:23;98438.56;;;17.00;55.90
47280;BME280;34064;44.942;0.008;2023-05-21T01:30:50;98433.19;;;17.00;55.38
47280;BME280;34064;44.942;0.008;2023-05-21T01:33:18;98436.72;;;17.00;55.30
47280;BME280;34064;44.942;0.008;2023-05-21T01:35:49;98434.88;;;17.01;55.59
47280;BME280;34064;44.942;0.008;2023-05-21T01:38:27;98436.56;;;17.02;55.27
47280;BME280;34064;44.942;0.008;2023-05-21T01:41:01;98434.03;;;17.00;55.43
47280;BME280;34064;44.942;0.008;2023-05-21T01:43:37;98435.22;;;16.98;56.22
47280;BME280;34064;44.942;0.008;2023-05-21T01:46:05;98439.56;;;16.99;55.84
47280;BME280;34064;44.942;0.008;2023-05-21T01:48:34;98435.22;;;16.98;55.96
47280;BME280;34064;44.942;0.008;2023-05-21T01:51:04;98434.38;;;16.97;55.81
47280;BME280;34064;44.942;0.008;2023-05-21T01:53:31;98427.00;;;16.99;55.87
47280;BME280;34064;44.942;0.008;2023-05-21T01:55:58;98418.78;;;17.01;55.63
47280;BME280;34064;44.942;0.008;2023-05-21T01:58:26;98421.16;;;17.04;55.89
47280;BME280;34064;44.942;0.008;2023-05-21T02:00:52;98416.59;;;17.05;55.90
47280;BME280;34064;44.942;0.008;2023-05-21T02:03:20;98410.22;;;17.06;55.97
47280;BME280;34064;44.942;0.008;2023-05-21T02:05:47;98410.06;;;17.07;55.37
47280;BME280;34064;44.942;0.008;2023-05-21T02:08:15;98404.38;;;17.02;55.94
47280;BME280;34064;44.942;0.008;2023-05-21T02:10:44;98403.88;;;16.98;55.89
47280;BME280;34064;44.942;0.008;2023-05-21T02:13:12;98408.56;;;16.96;55.84
47280;BME280;34064;44.942;0.008;2023-05-21T02:15:40;98405.03;;;16.96;56.09
47280;BME280;34064;44.942;0.008;2023-05-21T02:18:07;98401.34;;;16.97;56.64
47280;BME280;34064;44.942;0.008;2023-05-21T02:20:33;98400.19;;;16.99;56.12
47280;BME280;34064;44.942;0.008;2023-05-21T02:23:00;98399.00;;;17.02;56.12
47280;BME280;34064;44.942;0.008;2023-05-21T02:25:27;98395.31;;;17.03;56.30
47280;BME280;34064;44.942;0.008;2023-05-21T02:27:55;98390.78;;;17.04;56.64
47280;BME280;34064;44.942;0.008;2023-05-21T02:30:24;98386.25;;;17.04;56.72
47280;BME280;34064;44.942;0.008;2023-05-21T02:32:53;98392.94;;;17.08;56.29
47280;BME280;34064;44.942;0.008;2023-05-21T02:35:25;98384.91;;;17.08;56.43
47280;BME280;34064;44.942;0.008;2023-05-21T02:37:53;98391.13;;;17.09;56.51
47280;BME280;34064;44.942;0.008;2023-05-21T02:40:26;98395.13;;;17.05;57.23
47280;BME280;34064;44.942;0.008;2023-05-21T02:42:55;98397.00;;;17.04;56.83
47280;BME280;34064;44.942;0.008;2023-05-21T02:45:23;98400.81;;;17.02;56.69
47280;BME280;34064;44.942;0.008;2023-05-21T02:47:52;98409.72;;;17.02;57.17
47280;BME280;34064;44.942;0.008;2023-05-21T02:50:19;98404.38;;;17.02;56.80
47280;BME280;34064;44.942;0.008;2023-05-21T02:52:47;98398.31;;;17.00;56.45
47280;BME280;34064;44.942;0.008;2023-05-21T02:55:13;98398.00;;;16.95;56.40
47280;BME280;34064;44.942;0.008;2023-05-21T02:57:40;98402.66;;;16.84;56.83
47280;BME280;34064;44.942;0.008;2023-05-21T03:00:07;98406.69;;;16.80;56.84
47280;BME280;34064;44.942;0.008;2023-05-21T03:02:34;98410.72;;;16.76;56.89
47280;BME280;34064;44.942;0.008;2023-05-21T03:05:01;98414.72;;;16.72;57.09
47280;BME280;34064;44.942;0.008;2023-05-21T03:07:27;98412.72;;;16.74;57.04
47280;BME280;34064;44.942;0.008;2023-05-21T03:09:54;98413.53;;;16.75;57.10
47280;BME280;34064;44.942;0.008;2023-05-21T03:12:20;98410.72;;;16.76;57.05
47280;BME280;34064;44.942;0.008;2023-05-21T03:14:47;98403.66;;;16.75;57.28
47280;BME280;34064;44.942;0.008;2023-05-21T03:17:18;98410.72;;;16.76;57.08
47280;BME280;34064;44.942;0.008;2023-05-21T03:19:51;98416.22;;;16.75;57.10
47280;BME280;34064;44.942;0.008;2023-05-21T03:22:20;98413.72;;;16.73;57.03
47280;BME280;34064;44.942;0.008;2023-05-21T03:24:49;98412.22;;;16.71;57.13
47280;BME280;34064;44.942;0.008;2023-05-21T03:27:16;98413.38;;;16.68;57.18
47280;BME280;34064;44.942;0.008;2023-05-21T03:29:43;98409.34;;;16.64;56.85
47280;BME280;34064;44.942;0.008;2023-05-21T03:32:13;98412.03;;;16.56;57.26
47280;BME280;34064;44.942;0.008;2023-05-21T03:34:40;98408.00;;;16.51;57.44
47280;BME280;34064;44.942;0.008;2023-05-21T03:37:06;98412.69;;;16.49;57.46
47280;BME280;34064;44.942;0.008;2023-05-21T03:39:32;98412.03;;;16.47;57.59
47280;BME280;34064;44.942;0.008;2023-05-21T03:41:59;98412.84;;;16.48;57.35
47280;BME280;34064;44.942;0.008;2023-05-21T03:44:25;98410.34;;;16.46;57.26
47280;BME280;34064;44.942;0.008;2023-05-21T03:46:51;98411.34;;;16.45;57.34
47280;BME280;34064;44.942;0.008;2023-05-21T03:49:19;98406.66;;;16.47;57.37
47280;BME280;34064;44.942;0.008;2023-05-21T03:51:45;98414.03;;;16.45;57.52
47280;BME280;34064;44.942;0.008;2023-05-21T03:54:11;98409.66;;;16.44;57.31
47280;BME280;34064;44.942;0.008;2023-05-21T03:56:38;98412.84;;;16.40;57.25
47280;BME280;34064;44.942;0.008;2023-05-21T03:59:04;98415.34;;;16.33;57.36
47280;BME280;34064;44.942;0.008;2023-05-21T04:01:30;98420.69;;;16.33;57.35
47280;BME280;34064;44.942;0.008;2023-05-21T04:03:58;98422.38;;;16.34;57.27
47280;BME280;34064;44.942;0.008;2023-05-21T04:06:24;98416.00;;;16.35;57.46
47280;BME280;34064;44.942;0.008;2023-05-21T04:08:50;98418.50;;;16.36;57.46
47280;BME280;34064;44.942;0.008;2023-05-21T04:11:17;98414.16;;;16.35;57.65
47280;BME280;34064;44.942;0.008;2023-05-21T04:13:43;98411.34;;;16.37;57.61
47280;BME280;34064;44.942;0.008;2023-05-21T04:16:10;98402.28;;;16.38;57.58
47280;BME280;34064;44.942;0.008;2023-05-21T04:18:39;98405.78;;;16.38;57.74
47280;BME280;34064;44.942;0.008;2023-05-21T04:21:08;98407.31;;;16.41;57.72
47280;BME280;34064;44.942;0.008;2023-05-21T04:23:35;98410.66;;;16.43;57.56
47280;BME280;34064;44.942;0.008;2023-05-21T04:26:02;98412.34;;;16.44;57.58
47280;BME280;34064;44.942;0.008;2023-05-21T04:28:30;98415.03;;;16.44;57.98
47280;BME280;34064;44.942;0.008;2023-05-21T04:30:56;98408.16;;;16.42;57.49
47280;BME280;34064;44.942;0.008;2023-05-21T04:33:22;98412.66;;;16.33;57.29
47280;BME280;34064;44.942;0.008;2023-05-21T04:35:51;98429.03;;;16.21;57.42
47280;BME280;34064;44.942;0.008;2023-05-21T04:38:25;98430.69;;;16.14;58.14
47280;BME280;34064;44.942;0.008;2023-05-21T04:40:53;98436.72;;;16.16;57.90
47280;BME280;34064;44.942;0.008;2023-05-21T04:43:21;98439.75;;;16.21;57.75
47280;BME280;34064;44.942;0.008;2023-05-21T04:45:52;98432.41;;;16.24;58.33
47280;BME280;34064;44.942;0.008;2023-05-21T04:48:23;98432.06;;;16.27;58.44
47280;BME280;34064;44.942;0.008;2023-05-21T04:50:52;98436.09;;;16.31;58.01
47280;BME280;34064;44.942;0.008;2023-05-21T04:53:19;98432.91;;;16.35;58.35
47280;BME280;34064;44.942;0.008;2023-05-21T04:55:45;98429.91;;;16.38;58.11
47280;BME280;34064;44.942;0.008;2023-05-21T04:58:12;98440.16;;;16.43;58.05
47280;BME280;34064;44.942;0.008;2023-05-21T05:00:39;98437.97;;;16.47;58.08
47280;BME280;34064;44.942;0.008;2023-05-21T05:03:07;98435.97;;;16.49;58.21
47280;BME280;34064;44.942;0.008;2023-05-21T05:05:33;98443.03;;;16.50;58.43
47280;BME280;34064;44.942;0.008;2023-05-21T05:07:59;98434.81;;;16.51;58.10
47280;BME280;34064;44.942;0.008;2023-05-21T05:10:26;98434.81;;;16.51;57.99
47280;BME280;34064;44.942;0.008;2023-05-21T05:12:52;98436.81;;;16.49;58.00
47280;BME280;34064;44.942;0.008;2023-05-21T05:15:19;98435.13;;;16.48;58.12
47280;BME280;34064;44.942;0.008;2023-05-21T05:17:46;98435.47;;;16.45;58.50
47280;BME280;34064;44.942;0.008;2023-05-21T05:20:15;98442.50;;;16.46;58.41
47280;BME280;34064;44.942;0.008;2023-05-21T05:22:43;98440.66;;;16.47;58.87
47280;BME280;34064;44.942;0.008;2023-05-21T05:25:10;98438.66;;;16.49;58.83
47280;BME280;34064;44.942;0.008;2023-05-21T05:27:38;98435.66;;;16.52;58.92
47280;BME280;34064;44.942;0.008;2023-05-21T05:30:05;98434.47;;;16.55;59.10
47280;BME280;34064;44.942;0.008;2023-05-21T05:32:33;98442.03;;;16.59;59.09
47280;BME280;34064;44.942;0.008;2023-05-21T05:35:02;98439.84;;;16.63;58.61
47280;BME280;34064;44.942;0.008;2023-05-21T05:37:29;98439.19;;;16.61;58.75
47280;BME280;34064;44.942;0.008;2023-05-21T05:39:57;98444.88;;;16.58;58.42
47280;BME280;34064;44.942;0.008;2023-05-21T05:42:25;98452.56;;;16.52;58.44
47280;BME280;34064;44.942;0.008;2023-05-21T05:44:54;98457.59;;;16.47;59.22
47280;BME280;34064;44.942;0.008;2023-05-21T05:47:24;98447.53;;;16.49;58.91
47280;BME280;34064;44.942;0.008;2023-05-21T05:49:54;98453.56;;;16.51;58.68
47280;BME280;34064;44.942;0.008;2023-05-21T05:52:21;98457.25;;;16.50;58.73
47280;BME280;34064;44.942;0.008;2023-05-21T05:54:48;98459.25;;;16.48;58.92
47280;BME280;34064;44.942;0.008;2023-05-21T05:57:14;98461.94;;;16.48;59.33
47280;BME280;34064;44.942;0.008;2023-05-21T05:59:41;98464.97;;;16.53;59.07
47280;BME280;34064;44.942;0.008;2023-05-21T06:02:07;98451.25;;;16.57;58.76
47280;BME280;34064;44.942;0.008;2023-05-21T06:04:34;98453.59;;;16.60;58.91
47280;BME280;34064;44.942;0.008;2023-05-21T06:07:00;98451.59;;;16.62;58.98
47280;BME280;34064;44.942;0.008;2023-05-21T06:09:29;98448.72;;;16.63;59.11
47280;BME280;34064;44.942;0.008;2023-05-21T06:11:57;98454.94;;;16.64;59.51
47280;BME280;34064;44.942;0.008;2023-05-21T06:14:25;98443.03;;;16.66;59.84
47280;BME280;34064;44.942;0.008;2023-05-21T06:16:52;98448.25;;;16.76;59.12
47280;BME280;34064;44.942;0.008;2023-05-21T06:19:19;98444.72;;;16.84;59.08
47280;BME280;34064;44.942;0.008;2023-05-21T06:21:45;98449.44;;;16.90;59.07
47280;BME280;34064;44.942;0.008;2023-05-21T06:24:12;98447.31;;;16.94;60.42
47280;BME280;34064;44.942;0.008;2023-05-21T06:26:39;98451.81;;;17.02;59.40
47280;BME280;34064;44.942;0.008;2023-05-21T06:29:05;98447.78;;;17.06;59.82
47280;BME280;34064;44.942;0.008;2023-05-21T06:31:32;98445.44;;;17.11;59.88
47280;BME280;34064;44.942;0.008;2023-05-21T06:33:59;98449.28;;;17.17;59.36
47280;BME280;34064;44.942;0.008;2023-05-21T06:36:26;98455.34;;;17.10;60.58
47280;BME280;34064;44.942;0.008;2023-05-21T06:38:57;98446.78;;;17.15;60.21
47280;BME280;34064;44.942;0.008;2023-05-21T06:41:26;98449.16;;;17.18;60.46
47280;BME280;34064;44.942;0.008;2023-05-21T06:43:55;98450.31;;;17.24;60.19
47280;BME280;34064;44.942;0.008;2023-05-21T06:46:29;98443.41;;;17.29;59.69
47280;BME280;34064;44.942;0.008;2023-05-21T06:49:05;98438.56;;;17.33;59.70
47280;BME280;34064;44.942;0.008;2023-05-21T06:51:39;98438.56;;;17.33;59.49
47280;BME280;34064;44.942;0.008;2023-05-21T06:54:05;98443.25;;;17.39;59.79
47280;BME280;34064;44.942;0.008;2023-05-21T06:56:32;98432.81;;;17.44;59.84
47280;BME280;34064;44.942;0.008;2023-05-21T06:59:01;98440.53;;;17.48;59.71
47280;BME280;34064;44.942;0.008;2023-05-21T07:01:30;98437.34;;;17.52;59.56
47280;BME280;34064;44.942;0.008;2023-05-21T07:03:59;98432.47;;;17.56;59.50
47280;BME280;34064;44.942;0.008;2023-05-21T07:06:25;98430.94;;;17.61;59.35
47280;BME280;34064;44.942;0.008;2023-05-21T07:08:52;98436.81;;;17.65;59.82
47280;BME280;34064;44.942;0.008;2023-05-21T07:11:18;98436.47;;;17.68;59.64
47280;BME280;34064;44.942;0.008;2023-05-21T07:13:44;98438.44;;;17.74;59.60
47280;BME280;34064;44.942;0.008;2023-05-21T07:16:11;98429.19;;;17.77;59.35
47280;BME280;34064;44.942;0.008;2023-05-21T07:18:37;98433.56;;;17.78;60.02
47280;BME280;34064;44.942;0.008;2023-05-21T07:21:04;98431.22;;;17.83;59.72
47280;BME280;34064;44.942;0.008;2023-05-21T07:23:30;98432.72;;;17.86;59.90
47280;BME280;34064;44.942;0.008;2023-05-21T07:25:56;98432.38;;;17.89;59.58
47280;BME280;34064;44.942;0.008;2023-05-21T07:28:23;98430.50;;;17.89;59.85
47280;BME280;34064;44.942;0.008;2023-05-21T07:30:49;98428.31;;;17.93;59.62
47280;BME280;34064;44.942;0.008;2023-05-21T07:33:15;98429.69;;;17.97;59.72
47280;BME280;34064;44.942;0.008;2023-05-21T07:35:42;98431.38;;;17.98;60.16
47280;BME280;34064;44.942;0.008;2023-05-21T07:38:08;98438.03;;;18.02;60.05
47280;BME280;34064;44.942;0.008;2023-05-21T07:40:35;98427.78;;;18.06;60.05
47280;BME280;34064;44.942;0.008;2023-05-21T07:43:01;98434.69;;;18.08;60.29
47280;BME280;34064;44.942;0.008;2023-05-21T07:45:28;98436.00;;;18.13;60.37
47280;BME280;34064;44.942;0.008;2023-05-21T07:47:54;98430.94;;;18.18;60.43
47280;BME280;34064;44.942;0.008;2023-05-21T07:50:23;98420.47;;;18.23;60.48
47280;BME280;34064;44.942;0.008;2023-05-21T07:52:52;98430.91;;;18.26;60.38
47280;BME280;34064;44.942;0.008;2023-05-21T07:55:22;98422.47;;;18.29;60.46
47280;BME280;34064;44.942;0.008;2023-05-21T07:57:55;98423.78;;;18.33;60.57
47280;BME280;34064;44.942;0.008;2023-05-21T08:00:23;98419.09;;;18.35;60.68
47280;BME280;34064;44.942;0.008;2023-05-21T08:02:50;98418.41;;;18.33;60.76
47280;BME280;34064;44.942;0.008;2023-05-21T08:05:17;98416.41;;;18.35;60.93
47280;BME280;34064;44.942;0.008;2023-05-21T08:07:44;98412.31;;;18.39;60.65
47280;BME280;34064;44.942;0.008;2023-05-21T08:10:11;98422.06;;;18.40;60.74
47280;BME280;34064;44.942;0.008;2023-05-21T08:12:38;98413.66;;;18.44;60.74
47280;BME280;34064;44.942;0.008;2023-05-21T08:15:08;98408.41;;;18.50;60.79
47280;BME280;34064;44.942;0.008;2023-05-21T08:17:34;98408.88;;;18.54;60.96
47280;BME280;34064;44.942;0.008;2023-05-21T08:20:01;98413.88;;;18.57;60.39
47280;BME280;34064;44.942;0.008;2023-05-21T08:22:28;98419.94;;;18.59;60.37
47280;BME280;34064;44.942;0.008;2023-05-21T08:24:55;98411.50;;;18.62;60.60
47280;BME280;34064;44.942;0.008;2023-05-21T08:27:22;98410.31;;;18.65;60.64
47280;BME280;34064;44.942;0.008;2023-05-21T08:29:54;98410.50;;;18.63;61.57
47280;BME280;34064;44.942;0.008;2023-05-21T08:32:24;98410.97;;;18.67;60.69
47280;BME280;34064;44.942;0.008;2023-05-21T08:34:50;98407.56;;;18.73;60.80
47280;BME280;34064;44.942;0.008;2023-05-21T08:37:20;98400.63;;;18.79;60.99
47280;BME280;34064;44.942;0.008;2023-05-21T08:39:48;98405.66;;;18.82;60.79
47280;BME280;34064;44.942;0.008;2023-05-21T08:45:08;98394.50;;;18.93;61.11
47280;BME280;34064;44.942;0.008;2023-05-21T08:47:36;98378.97;;;18.95;60.96
47280;BME280;34064;44.942;0.008;2023-05-21T08:50:07;98381.31;;;18.98;61.00
47280;BME280;34064;44.942;0.008;2023-05-21T08:52:34;98381.59;;;19.04;60.79
47280;BME280;34064;44.942;0.008;2023-05-21T08:55:03;98379.22;;;19.09;60.88
47280;BME280;34064;44.942;0.008;2023-05-21T08:57:31;98378.09;;;19.18;61.13
47280;BME280;34064;44.942;0.008;2023-05-21T08:59:59;98376.00;;;19.28;60.87
47280;BME280;34064;44.942;0.008;2023-05-21T09:02:28;98372.53;;;19.35;60.65
47280;BME280;34064;44.942;0.008;2023-05-21T09:05:00;98369.75;;;19.43;60.67
47280;BME280;34064;44.942;0.008;2023-05-21T09:07:33;98366.97;;;19.51;60.56
47280;BME280;34064;44.942;0.008;2023-05-21T09:10:06;98363.81;;;19.62;60.44
47280;BME280;34064;44.942;0.008;2023-05-21T09:12:35;98365.13;;;19.67;60.30
47280;BME280;34064;44.942;0.008;2023-05-21T09:15:02;98366.03;;;19.74;60.16
47280;BME280;34064;44.942;0.008;2023-05-21T09:17:33;98355.91;;;19.76;60.41
47280;BME280;34064;44.942;0.008;2023-05-21T09:20:11;98362.03;;;19.85;60.40
47280;BME280;34064;44.942;0.008;2023-05-21T09:22:47;98353.69;;;19.94;60.26
47280;BME280;34064;44.942;0.008;2023-05-21T09:25:16;98353.81;;;20.08;60.12
47280;BME280;34064;44.942;0.008;2023-05-21T09:27:43;98349.63;;;20.20;59.87
47280;BME280;34064;44.942;0.008;2023-05-21T09:30:12;98342.31;;;20.36;60.21
47280;BME280;34064;44.942;0.008;2023-05-21T09:32:39;98335.88;;;20.58;60.01
47280;BME280;34064;44.942;0.008;2023-05-21T09:35:10;98329.47;;;20.81;59.79
47280;BME280;34064;44.942;0.008;2023-05-21T09:37:43;98324.16;;;20.95;59.45
47280;BME280;34064;44.942;0.008;2023-05-21T09:42:45;98327.41;;;21.12;58.83
47280;BME280;34064;44.942;0.008;2023-05-21T09:45:22;98321.63;;;21.15;58.78
47280;BME280;34064;44.942;0.008;2023-05-21T09:47:51;98320.00;;;21.21;58.82
47280;BME280;34064;44.942;0.008;2023-05-21T09:50:19;98319.03;;;21.35;58.82
47280;BME280;34064;44.942;0.008;2023-05-21T09:52:47;98317.03;;;21.50;58.05
47280;BME280;34064;44.942;0.008;2023-05-21T09:55:16;98306.72;;;21.61;57.90
47280;BME280;34064;44.942;0.008;2023-05-21T09:57:43;98302.19;;;21.68;57.36
47280;BME280;34064;44.942;0.008;2023-05-21T10:00:30;98313.41;;;21.65;57.78
47280;BME280;34064;44.942;0.008;2023-05-21T10:03:08;98314.25;;;21.72;57.63
47280;BME280;34064;44.942;0.008;2023-05-21T10:05:38;98307.66;;;21.81;57.28
47280;BME280;34064;44.942;0.008;2023-05-21T10:08:08;98305.19;;;21.87;57.25
47280;BME280;34064;44.942;0.008;2023-05-21T10:10:38;98299.16;;;21.98;57.13
47280;BME280;34064;44.942;0.008;2023-05-21T10:13:07;98298.56;;;22.09;57.14
47280;BME280;34064;44.942;0.008;2023-05-21T10:15:38;98298.63;;;22.23;56.98
47280;BME280;34064;44.942;0.008;2023-05-21T10:18:08;98300.28;;;22.24;56.86
47280;BME280;34064;44.942;0.008;2023-05-21T10:20:35;98309.63;;;22.28;56.88
47280;BME280;34064;44.942;0.008;2023-05-21T10:23:03;98307.78;;;22.28;57.01
47280;BME280;34064;44.942;0.008;2023-05-21T10:25:31;98305.91;;;22.29;56.90
47280;BME280;34064;44.942;0.008;2023-05-21T10:27:59;98303.41;;;22.27;56.66
47280;BME280;34064;44.942;0.008;2023-05-21T10:30:31;98298.19;;;22.33;56.80
47280;BME280;34064;44.942;0.008;2023-05-21T10:33:01;98293.03;;;22.44;56.78
47280;BME280;34064;44.942;0.008;2023-05-21T10:35:28;98288.66;;;22.50;55.81
47280;BME280;34064;44.942;0.008;2023-05-21T10:37:57;98294.09;;;22.50;55.57
47280;BME280;34064;44.942;0.008;2023-05-21T10:40:26;98302.41;;;22.49;55.75
47280;BME280;34064;44.942;0.008;2023-05-21T10:49:34;98299.66;;;22.35;56.03
47280;BME280;34064;44.942;0.008;2023-05-21T10:52:33;98302.34;;;22.35;55.89
47280;BME280;34064;44.942;0.008;2023-05-21T10:55:28;98294.09;;;22.50;55.90
47280;BME280;34064;44.942;0.008;2023-05-21T10:58:33;98297.03;;;22.62;55.87
47280;BME280;34064;44.942;0.008;2023-05-21T11:01:05;98293.06;;;22.58;55.74
47280;BME280;34064;44.942;0.008;2023-05-21T11:03:33;98295.75;;;22.58;55.75
47280;BME280;34064;44.942;0.008;2023-05-21T11:06:02;98293.06;;;22.65;55.57
47280;BME280;34064;44.942;0.008;2023-05-21T11:08:31;98289.50;;;22.64;55.77
47280;BME280;34064;44.942;0.008;2023-05-21T11:11:03;98292.84;;;22.66;55.23
47280;BME280;34064;44.942;0.008;2023-05-21T11:13:47;98282.03;;;22.80;55.17
47280;BME280;34064;44.942;0.008;2023-05-21T11:16:17;98284.50;;;22.88;55.19
47280;BME280;34064;44.942;0.008;2023-05-21T11:21:17;98279.91;;;22.95;54.84
47280;BME280;34064;44.942;0.008;2023-05-21T11:23:58;98275.75;;;22.99;54.80
47280;BME280;34064;44.942;0.008;2023-05-21T11:26:28;98278.03;;;23.02;54.68
47280;BME280;34064;44.942;0.008;2023-05-21T11:31:32;98265.50;;;23.15;54.86
47280;BME280;34064;44.942;0.008;2023-05-21T11:34:22;98266.16;;;23.24;54.77
47280;BME280;34064;44.942;0.008;2023-05-21T11:39:45;98271.16;;;23.13;53.76
47280;BME280;34064;44.942;0.008;2023-05-21T11:42:39;98273.22;;;23.11;54.38
47280;BME280;34064;44.942;0.008;2023-05-21T11:45:17;98268.22;;;23.08;54.54
47280;BME280;34064;44.942;0.008;2023-05-21T11:47:46;98267.81;;;23.04;54.45
47280;BME280;34064;44.942;0.008;2023-05-21T11:50:14;98275.75;;;22.99;54.41
47280;BME280;34064;44.942;0.008;2023-05-21T11:52:45;98280.75;;;22.89;54.78
47280;BME280;34064;44.942;0.008;2023-05-21T11:55:22;98282.84;;;22.87;54.90
47280;BME280;34064;44.942;0.008;2023-05-21T11:57:52;98281.19;;;22.86;55.11
47280;BME280;34064;44.942;0.008;2023-05-21T12:00:23;98279.28;;;22.86;55.26
47280;BME280;34064;44.942;0.008;2023-05-21T12:02:55;98286.59;;;22.93;55.42
47280;BME280;34064;44.942;0.008;2023-05-21T12:05:28;98284.91;;;22.98;55.29
47280;BME280;34064;44.942;0.008;2023-05-21T12:08:00;98275.09;;;23.11;55.19
47280;BME280;34064;44.942;0.008;2023-05-21T12:10:31;98265.72;;;23.20;54.81
47280;BME280;34064;44.942;0.008;2023-05-21T12:13:03;98263.22;;;23.25;55.28
47280;BME280;34064;44.942;0.008;2023-05-21T12:15:38;98262.16;;;23.33;55.22
47280;BME280;34064;44.942;0.008;2023-05-21T12:18:14;98264.41;;;23.43;55.19
47280;BME280;34064;44.942;0.008;2023-05-21T12:20:50;98262.09;;;23.46;54.86
47280;BME280;34064;44.942;0.008;2023-05-21T12:23:24;98259.13;;;23.55;54.61
47280;BME280;34064;44.942;0.008;2023-05-21T12:25:55;98246.34;;;23.68;54.69
47280;BME280;34064;44.942;0.008;2023-05-21T12:28:30;98254.84;;;23.79;54.64
47280;BME280;34064;44.942;0.008;2023-05-21T12:31:01;98259.22;;;23.80;54.37
47280;BME280;34064;44.942;0.008;2023-05-21T12:33:38;98250.72;;;23.76;54.15
47280;BME280;34064;44.942;0.008;2023-05-21T12:36:09;98251.75;;;23.75;53.88
47280;BME280;34064;44.942;0.008;2023-05-21T12:38:39;98253.66;;;23.75;54.07
47280;BME280;34064;44.942;0.008;2023-05-21T12:41:08;98259.66;;;23.77;53.51
47280;BME280;34064;44.942;0.008;2023-05-21T12:43:42;98253.84;;;23.73;53.01
47280;BME280;34064;44.942;0.008;2023-05-21T12:46:15;98259.28;;;23.66;53.28
47280;BME280;34064;44.942;0.008;2023-05-21T12:48:54;98274.75;;;23.59;53.42
47280;BME280;34064;44.942;0.008;2023-05-21T12:51:23;98263.50;;;23.62;52.81
47280;BME280;34064;44.942;0.008;2023-05-21T12:53:53;98266.22;;;23.56;53.07
47280;BME280;34064;44.942;0.008;2023-05-21T12:56:20;98265.59;;;23.53;52.90
47280;BME280;34064;44.942;0.008;2023-05-21T12:58:50;98254.34;;;23.57;52.98
47280;BME280;34064;44.942;0.008;2023-05-21T13:01:26;98269.34;;;23.52;52.84
47280;BME280;34064;44.942;0.008;2023-05-21T13:03:59;98265.22;;;23.43;52.90
47280;BME280;34064;44.942;0.008;2023-05-21T13:06:26;98276.13;;;23.36;53.06
47280;BME280;34064;44.942;0.008;2023-05-21T13:08:52;98271.53;;;23.30;53.03
47280;BME280;34064;44.942;0.008;2023-05-21T13:11:20;98268.81;;;23.30;53.28
47280;BME280;34064;44.942;0.008;2023-05-21T13:13:47;98269.44;;;23.32;53.26
47280;BME280;34064;44.942;0.008;2023-05-21T13:16:13;98276.94;;;23.30;53.15
47280;BME280;34064;44.942;0.008;2023-05-21T13:18:40;98284.47;;;23.28;53.01
47280;BME280;34064;44.942;0.008;2023-05-21T13:21:12;98277.38;;;23.27;52.79
47280;BME280;34064;44.942;0.008;2023-05-21T13:23:44;98279.88;;;23.22;53.02
47280;BME280;34064;44.942;0.008;2023-05-21T13:26:11;98277.41;;;23.20;53.29
47280;BME280;34064;44.942;0.008;2023-05-21T13:28:37;98287.81;;;23.24;53.24
47280;BME280;34064;44.942;0.008;2023-05-21T13:31:06;98286.75;;;23.31;53.34